Current | Forecast
Updated: 7:00 PM CEST on October 23, 2017
Observed at Vigo, Spain
Temperature 19°C
Humidity 52%
Dew Point 9°C
Wind North at 6 km/h
Pressure 1025 hPa (Steady)
Conditions Clear
Visibility -
UV N/A
Clouds
Yesterday's Maximum 19°C
Yesterday's Minimum 8°C approx.
Yesterday's Heating Degree Days 9 approx.
Sunrise8:57 AM CEST
Sunset7:40 PM CEST
Moon Rise12:16 PM CEST
Moon Set10:17 PM CEST
Moon PhaseMoon Phase
Waxing Crescent
Raw METARMETAR LEVX 231700Z 36003KT 320V030 CAVOK 19/09 Q1025 NOSIG


Monday
. High: 60° F.
Tuesday
. High: 59° F.
Wednesday
. High: 55° F.
Thursday
. High: 60° F.
Friday
. High: 68° F.
Saturday
. High: 57° F.
Sunday
. High: 68° F.
Monday
. High: 75° F.

Click here for Marine Information
Scientific forecaster discussion (NWS)

Units: English | Metric

Find the Weather for any City, State or Zipcode, or Country:

U.S. State List | Severe Weather | Tropical Storms | Ski Conditions
United States | Canada | Central America | South America | Asia | Europe | Australia | Africa | Islands

Weather Underground

© Copyright 2017
The Weather Company, LLC